createdAt,value
2022-08-27T00:02:11.842Z,19.90
2022-08-27T00:04:42.558Z,19.90
2022-08-27T00:07:11.232Z,19.90
2022-08-27T00:09:40.624Z,19.80
2022-08-27T00:12:09.818Z,19.70
2022-08-27T00:14:39.772Z,19.60
2022-08-27T00:17:08.837Z,19.50
2022-08-27T00:19:37.663Z,19.50
2022-08-27T00:22:12.012Z,19.50
2022-08-27T00:24:48.723Z,19.50
2022-08-27T00:27:17.366Z,19.40
2022-08-27T00:29:45.774Z,19.40
2022-08-27T00:32:14.248Z,19.30
2022-08-27T00:34:42.717Z,19.30
2022-08-27T00:37:12.437Z,19.20
2022-08-27T00:39:40.817Z,19.10
2022-08-27T00:42:09.477Z,19.10
2022-08-27T00:44:38.909Z,19.00
2022-08-27T00:47:11.597Z,19.00
2022-08-27T00:49:44.659Z,18.90
2022-08-27T00:52:19.689Z,18.80
2022-08-27T00:54:49.051Z,18.70
2022-08-27T00:57:18.495Z,18.70
2022-08-27T00:59:47.457Z,18.60
2022-08-27T01:02:22.064Z,18.60
2022-08-27T01:04:54.183Z,18.60
2022-08-27T01:07:28.540Z,18.60
2022-08-27T01:10:01.337Z,18.50
2022-08-27T01:12:32.862Z,18.50
2022-08-27T01:15:04.445Z,18.40
2022-08-27T01:17:33.147Z,18.40
2022-08-27T01:20:08.499Z,18.30
2022-08-27T01:22:48.248Z,18.20
2022-08-27T01:25:19.416Z,18.20
2022-08-27T01:27:48.829Z,18.20
2022-08-27T01:30:19.892Z,18.10
2022-08-27T01:32:49.656Z,18.00
2022-08-27T01:35:19.000Z,18.00
2022-08-27T01:37:52.959Z,18.00
2022-08-27T01:40:26.846Z,18.00
2022-08-27T01:42:57.762Z,17.90
2022-08-27T01:45:28.479Z,17.90
2022-08-27T01:47:57.286Z,17.90
2022-08-27T01:50:28.625Z,17.90
2022-08-27T01:52:57.409Z,17.90
2022-08-27T01:55:28.221Z,17.90
2022-08-27T01:57:57.000Z,17.90
2022-08-27T02:00:27.068Z,17.90
2022-08-27T02:02:56.266Z,17.90
2022-08-27T02:05:24.997Z,18.00
2022-08-27T02:07:56.193Z,18.00
2022-08-27T02:10:28.372Z,18.10
2022-08-27T02:12:57.116Z,18.00
2022-08-27T02:15:26.712Z,18.00
2022-08-27T02:17:55.300Z,18.00
2022-08-27T02:20:24.662Z,17.90
2022-08-27T02:22:57.904Z,17.90
2022-08-27T02:25:28.937Z,17.90
2022-08-27T02:28:00.433Z,17.80
2022-08-27T02:30:32.005Z,17.80
2022-08-27T02:33:00.971Z,17.80
2022-08-27T02:35:30.762Z,17.80
2022-08-27T02:37:59.692Z,17.70
2022-08-27T02:40:29.807Z,17.70
2022-08-27T02:42:58.594Z,17.70
2022-08-27T02:45:26.881Z,17.70
2022-08-27T02:47:55.344Z,17.70
2022-08-27T02:50:26.919Z,17.70
2022-08-27T02:52:59.192Z,17.60
2022-08-27T02:55:28.728Z,17.60
2022-08-27T02:57:58.183Z,17.60
2022-08-27T03:00:28.693Z,17.60
2022-08-27T03:02:57.668Z,17.50
2022-08-27T03:05:26.708Z,17.60
2022-08-27T03:07:55.113Z,17.60
2022-08-27T03:10:23.854Z,17.50
2022-08-27T03:12:56.814Z,17.60
2022-08-27T03:15:25.604Z,17.60
2022-08-27T03:18:11.543Z,17.60
2022-08-27T03:20:40.944Z,17.60
2022-08-27T03:23:10.300Z,17.60
2022-08-27T03:25:39.488Z,17.60
2022-08-27T03:28:18.731Z,17.50
2022-08-27T03:30:52.262Z,17.50
2022-08-27T03:33:22.364Z,17.60
2022-08-27T03:35:52.057Z,17.50
2022-08-27T03:38:21.007Z,17.60
2022-08-27T03:40:51.233Z,17.50
2022-08-27T03:43:22.848Z,17.60
2022-08-27T03:46:05.615Z,17.50
2022-08-27T03:48:34.387Z,17.50
2022-08-27T03:51:07.969Z,17.50
2022-08-27T03:53:36.841Z,17.40
2022-08-27T03:56:06.262Z,17.40
2022-08-27T03:58:36.324Z,17.40
2022-08-27T04:01:05.273Z,17.30
2022-08-27T04:03:34.635Z,17.30
2022-08-27T04:06:03.627Z,17.30
2022-08-27T04:08:31.994Z,17.30
2022-08-27T04:11:00.421Z,17.40
2022-08-27T04:13:29.162Z,17.40
2022-08-27T04:16:02.445Z,17.50
2022-08-27T04:18:30.894Z,17.40
2022-08-27T04:20:59.262Z,17.40
2022-08-27T04:23:27.854Z,17.40
2022-08-27T04:25:56.223Z,17.50
2022-08-27T04:28:24.563Z,17.40
2022-08-27T04:30:52.963Z,17.50
2022-08-27T04:33:22.749Z,17.30
2022-08-27T04:35:58.931Z,17.30
2022-08-27T04:38:27.370Z,17.40
2022-08-27T04:41:13.268Z,17.40
2022-08-27T04:43:42.769Z,17.50
2022-08-27T04:46:11.052Z,17.50
2022-08-27T04:48:40.684Z,17.50
2022-08-27T04:51:09.032Z,17.50
2022-08-27T04:53:41.195Z,17.60
2022-08-27T04:56:14.354Z,17.60
2022-08-27T04:58:43.546Z,17.60
2022-08-27T05:01:18.081Z,17.60
2022-08-27T05:03:47.966Z,17.60
2022-08-27T05:06:17.437Z,17.70
2022-08-27T05:08:45.692Z,17.70
2022-08-27T05:11:16.404Z,17.70
2022-08-27T05:13:45.742Z,17.70
2022-08-27T05:16:18.244Z,17.70
2022-08-27T05:18:48.900Z,17.80
2022-08-27T05:21:22.816Z,17.70
2022-08-27T05:23:52.228Z,17.80
2022-08-27T05:26:21.347Z,17.90
2022-08-27T05:28:49.841Z,17.90
2022-08-27T05:31:20.533Z,17.90
2022-08-27T05:33:51.205Z,18.00
2022-08-27T05:36:21.486Z,18.00
2022-08-27T05:38:51.467Z,18.00
2022-08-27T05:41:33.996Z,17.90
2022-08-27T05:44:18.595Z,18.00
2022-08-27T05:46:53.715Z,17.90
2022-08-27T05:49:23.198Z,18.00
2022-08-27T05:51:51.800Z,18.20
2022-08-27T05:54:20.186Z,18.40
2022-08-27T05:56:50.311Z,18.40
2022-08-27T05:59:36.638Z,18.80
2022-08-27T06:02:06.131Z,20.20
2022-08-27T06:04:36.225Z,21.00
2022-08-27T06:07:04.754Z,21.40
2022-08-27T06:09:33.183Z,21.80
2022-08-27T06:12:03.673Z,22.00
2022-08-27T06:14:32.201Z,22.30
2022-08-27T06:17:02.132Z,21.90
2022-08-27T06:19:30.513Z,20.80
2022-08-27T06:22:10.294Z,20.90
2022-08-27T06:24:40.558Z,20.10
2022-08-27T06:27:11.259Z,19.80
2022-08-27T06:29:39.688Z,19.60
2022-08-27T06:32:09.162Z,19.50
2022-08-27T06:34:38.227Z,19.50
2022-08-27T06:37:08.616Z,19.40
2022-08-27T06:39:39.231Z,19.90
2022-08-27T06:42:11.468Z,19.70
2022-08-27T06:44:40.208Z,19.80
2022-08-27T06:47:08.639Z,19.70
2022-08-27T06:49:40.102Z,19.60
2022-08-27T06:52:09.845Z,19.70
2022-08-27T06:54:39.822Z,19.80
2022-08-27T06:57:08.121Z,19.80
2022-08-27T06:59:36.406Z,20.10
2022-08-27T07:02:07.192Z,20.40
2022-08-27T07:04:35.467Z,21.00
2022-08-27T07:07:04.867Z,20.60
2022-08-27T07:09:35.607Z,21.10
2022-08-27T07:12:05.145Z,21.10
2022-08-27T07:14:37.777Z,21.40
2022-08-27T07:17:10.831Z,21.60
2022-08-27T07:19:44.013Z,21.90
2022-08-27T07:22:13.302Z,22.10
2022-08-27T07:24:43.250Z,22.00
2022-08-27T07:27:12.093Z,21.10
2022-08-27T07:29:40.802Z,21.70
2022-08-27T07:32:09.138Z,21.60
2022-08-27T07:34:37.794Z,21.50
2022-08-27T07:37:06.321Z,21.40
2022-08-27T07:39:34.792Z,21.90
2022-08-27T07:42:22.041Z,21.20
2022-08-27T07:44:50.625Z,20.90
2022-08-27T07:47:19.182Z,21.00
2022-08-27T07:49:48.650Z,21.20
2022-08-27T07:52:17.228Z,21.40
2022-08-27T07:54:45.762Z,21.80
2022-08-27T07:57:15.339Z,21.40
2022-08-27T07:59:43.764Z,22.00
2022-08-27T08:02:13.032Z,22.00
2022-08-27T08:04:41.704Z,22.10
2022-08-27T08:07:10.331Z,22.30
2022-08-27T08:09:38.627Z,22.00
2022-08-27T08:12:07.534Z,21.80
2022-08-27T08:14:37.492Z,21.80
2022-08-27T08:17:10.283Z,21.50
2022-08-27T08:19:40.432Z,21.20
2022-08-27T08:22:09.106Z,21.40
2022-08-27T08:24:37.531Z,21.70
2022-08-27T08:27:07.636Z,21.70
2022-08-27T08:29:38.265Z,21.70
2022-08-27T08:32:07.582Z,21.30
2022-08-27T08:34:36.835Z,21.60
2022-08-27T08:37:06.320Z,21.70
2022-08-27T08:39:34.666Z,22.30
2022-08-27T08:42:07.191Z,22.50
2022-08-27T08:44:40.701Z,22.80
2022-08-27T08:47:13.518Z,22.70
2022-08-27T08:49:51.629Z,22.70
2022-08-27T08:52:31.135Z,22.40
2022-08-27T08:55:08.628Z,22.70
2022-08-27T08:57:41.909Z,22.90
2022-08-27T09:00:14.464Z,22.30
2022-08-27T09:02:50.379Z,22.70
2022-08-27T09:05:18.791Z,22.70
2022-08-27T09:07:58.223Z,22.40
2022-08-27T09:10:44.829Z,22.60
2022-08-27T09:13:23.103Z,22.70
2022-08-27T09:15:55.323Z,23.10
2022-08-27T09:18:27.987Z,23.10
2022-08-27T09:21:08.749Z,22.80
2022-08-27T09:23:46.806Z,23.00
2022-08-27T09:26:20.805Z,22.60
2022-08-27T09:29:06.076Z,22.90
2022-08-27T09:31:40.959Z,23.30
2022-08-27T09:34:09.681Z,23.70
2022-08-27T09:36:50.598Z,23.40
2022-08-27T09:39:19.079Z,22.50
2022-08-27T09:41:49.461Z,23.10
2022-08-27T09:44:20.674Z,23.40
2022-08-27T09:46:59.202Z,23.80
2022-08-27T09:49:27.889Z,24.00
2022-08-27T09:51:57.286Z,23.80
2022-08-27T09:54:31.639Z,23.20
2022-08-27T09:57:00.773Z,23.90
2022-08-27T09:59:35.755Z,23.60
2022-08-27T10:02:12.208Z,23.80
2022-08-27T10:04:50.974Z,24.70
2022-08-27T10:07:32.851Z,24.40
2022-08-27T10:10:06.128Z,24.30
2022-08-27T10:12:40.296Z,23.50
2022-08-27T10:15:11.147Z,23.90
2022-08-27T10:17:52.407Z,24.10
2022-08-27T10:20:30.826Z,23.70
2022-08-27T10:23:10.230Z,23.80
2022-08-27T10:25:44.709Z,23.70
2022-08-27T10:28:25.296Z,23.60
2022-08-27T10:31:09.789Z,23.70
2022-08-27T10:33:54.032Z,24.30
2022-08-27T10:36:36.542Z,24.30
2022-08-27T10:39:14.600Z,23.80
2022-08-27T10:41:45.947Z,23.60
2022-08-27T10:44:32.399Z,24.10
2022-08-27T10:47:16.558Z,24.30
2022-08-27T10:49:54.526Z,23.90
2022-08-27T10:52:28.186Z,24.00
2022-08-27T10:55:02.625Z,24.00
2022-08-27T10:57:58.997Z,23.80
2022-08-27T11:00:37.971Z,23.80
2022-08-27T11:03:12.302Z,23.50
2022-08-27T11:05:47.124Z,23.30
2022-08-27T11:08:20.201Z,23.60
2022-08-27T11:10:50.642Z,23.90
2022-08-27T11:13:24.565Z,23.90
2022-08-27T11:15:55.923Z,23.40
2022-08-27T11:18:34.222Z,23.70
2022-08-27T11:21:09.847Z,23.60
2022-08-27T11:23:44.371Z,23.90
2022-08-27T11:26:13.553Z,24.10
2022-08-27T11:28:44.875Z,24.30
2022-08-27T11:31:21.090Z,23.80
2022-08-27T11:33:59.807Z,23.40
2022-08-27T11:37:09.664Z,23.30
2022-08-27T11:39:52.877Z,23.50
2022-08-27T11:42:30.021Z,23.80
2022-08-27T11:45:08.145Z,24.00
2022-08-27T11:47:38.821Z,23.90
2022-08-27T11:50:16.958Z,24.10
2022-08-27T11:52:59.221Z,24.20
2022-08-27T11:55:30.723Z,24.20
2022-08-27T11:58:09.776Z,23.90
2022-08-27T12:00:40.132Z,24.10
2022-08-27T12:03:10.803Z,24.20
2022-08-27T12:05:43.738Z,23.90
2022-08-27T12:08:21.203Z,23.30
2022-08-27T12:11:04.901Z,23.60
2022-08-27T12:13:40.265Z,24.10
2022-08-27T12:16:23.539Z,24.40
2022-08-27T12:19:04.257Z,24.60
2022-08-27T12:21:43.401Z,24.10
2022-08-27T12:24:46.693Z,23.80
2022-08-27T12:27:29.434Z,23.90
2022-08-27T12:29:59.826Z,24.00
2022-08-27T12:32:31.412Z,24.40
2022-08-27T12:35:11.861Z,24.50
2022-08-27T12:37:44.674Z,24.60
2022-08-27T12:40:24.473Z,24.60
2022-08-27T12:43:07.287Z,24.40
2022-08-27T12:45:42.594Z,24.60
2022-08-27T12:48:11.698Z,24.20
2022-08-27T12:50:40.340Z,24.20
2022-08-27T12:53:27.573Z,24.30
2022-08-27T12:56:09.035Z,23.70
2022-08-27T12:58:48.869Z,24.00
2022-08-27T13:01:32.333Z,24.00
2022-08-27T13:04:01.463Z,24.30
2022-08-27T13:06:33.071Z,23.50
2022-08-27T13:09:02.547Z,23.90
2022-08-27T13:11:32.659Z,24.20
2022-08-27T13:14:11.285Z,24.30
2022-08-27T13:16:43.787Z,24.40
2022-08-27T13:19:26.256Z,24.30
2022-08-27T13:21:55.210Z,24.40
2022-08-27T13:24:31.465Z,24.60
2022-08-27T13:27:00.170Z,24.40
2022-08-27T13:29:29.935Z,24.60
2022-08-27T13:31:59.786Z,24.50
2022-08-27T13:34:33.054Z,24.10
2022-08-27T13:37:04.244Z,24.40
2022-08-27T13:39:34.071Z,23.90
2022-08-27T13:42:03.784Z,23.80
2022-08-27T13:44:36.755Z,24.20
2022-08-27T13:47:08.322Z,23.90
2022-08-27T13:49:40.302Z,23.90
2022-08-27T13:52:17.483Z,24.20
2022-08-27T13:54:47.021Z,23.80
2022-08-27T13:57:25.654Z,23.80
2022-08-27T13:59:55.586Z,24.10
2022-08-27T14:02:29.425Z,23.60
2022-08-27T14:05:11.572Z,23.40
2022-08-27T14:07:43.312Z,24.10
2022-08-27T14:10:32.529Z,24.00
2022-08-27T14:13:03.192Z,23.80
2022-08-27T14:15:35.908Z,24.20
2022-08-27T14:18:06.663Z,24.00
2022-08-27T14:20:36.959Z,24.00
2022-08-27T14:23:05.491Z,24.10
2022-08-27T14:25:34.926Z,23.90
2022-08-27T14:28:03.648Z,24.20
2022-08-27T14:30:33.450Z,24.40
2022-08-27T14:33:02.659Z,24.20
2022-08-27T14:35:32.722Z,24.40
2022-08-27T14:38:05.529Z,24.40
2022-08-27T14:40:34.035Z,24.30
2022-08-27T14:43:02.879Z,24.50
2022-08-27T14:45:33.231Z,24.60
2022-08-27T14:48:02.286Z,24.70
2022-08-27T14:50:30.907Z,24.30
2022-08-27T14:52:59.473Z,24.50
2022-08-27T14:55:27.925Z,24.30
2022-08-27T14:57:56.268Z,23.90
2022-08-27T15:00:24.948Z,23.80
2022-08-27T15:02:55.785Z,24.20
2022-08-27T15:05:26.833Z,24.50
2022-08-27T15:07:58.027Z,24.50
2022-08-27T15:10:28.539Z,24.50
2022-08-27T15:12:57.969Z,24.60
2022-08-27T15:15:26.475Z,24.40
2022-08-27T15:17:56.426Z,24.40
2022-08-27T15:20:24.849Z,24.30
2022-08-27T15:22:53.906Z,24.40
2022-08-27T15:25:22.531Z,24.20
2022-08-27T15:27:51.261Z,23.60
2022-08-27T15:30:26.075Z,24.20
2022-08-27T15:32:56.415Z,24.00
2022-08-27T15:35:27.592Z,24.10
2022-08-27T15:37:57.231Z,24.20
2022-08-27T15:40:28.120Z,24.20
2022-08-27T15:42:59.671Z,24.60
2022-08-27T15:45:28.614Z,24.70
2022-08-27T15:47:58.335Z,24.60
2022-08-27T15:50:28.321Z,24.30
2022-08-27T15:53:00.470Z,24.50
2022-08-27T15:55:32.205Z,24.10
2022-08-27T15:58:01.441Z,23.60
2022-08-27T16:00:32.523Z,23.90
2022-08-27T16:03:02.992Z,24.00
2022-08-27T16:05:34.801Z,23.60
2022-08-27T16:08:03.217Z,23.50
2022-08-27T16:10:31.561Z,23.50
2022-08-27T16:13:00.060Z,23.50
2022-08-27T16:15:28.637Z,23.70
2022-08-27T16:18:00.733Z,23.70
2022-08-27T16:20:30.385Z,24.20
2022-08-27T16:22:58.825Z,24.10
2022-08-27T16:25:27.368Z,24.00
2022-08-27T16:27:55.812Z,23.80
2022-08-27T16:30:24.245Z,24.00
2022-08-27T16:32:53.264Z,24.30
2022-08-27T16:35:25.334Z,24.00
2022-08-27T16:37:54.889Z,24.20
2022-08-27T16:40:23.587Z,24.20
2022-08-27T16:42:53.399Z,23.90
2022-08-27T16:45:23.755Z,23.60
2022-08-27T16:48:10.610Z,24.00
2022-08-27T16:50:39.174Z,23.60
2022-08-27T16:53:13.187Z,23.70
2022-08-27T16:55:42.414Z,23.60
2022-08-27T16:58:16.576Z,24.00
2022-08-27T17:00:45.852Z,23.60
2022-08-27T17:03:14.810Z,23.50
2022-08-27T17:05:43.385Z,23.40
2022-08-27T17:08:16.448Z,23.80
2022-08-27T17:10:48.706Z,23.90
2022-08-27T17:13:19.870Z,24.00
2022-08-27T17:15:52.902Z,23.80
2022-08-27T17:18:22.601Z,23.70
2022-08-27T17:20:52.227Z,23.70
2022-08-27T17:23:26.742Z,23.80
2022-08-27T17:25:55.005Z,23.80
2022-08-27T17:28:23.311Z,23.70
2022-08-27T17:30:51.768Z,23.30
2022-08-27T17:33:25.645Z,23.60
2022-08-27T17:35:53.956Z,23.70
2022-08-27T17:38:23.506Z,23.30
2022-08-27T17:40:53.377Z,23.60
2022-08-27T17:43:22.199Z,23.20
2022-08-27T17:45:51.185Z,23.30
2022-08-27T17:48:24.825Z,23.60
2022-08-27T17:50:55.077Z,23.80
2022-08-27T17:53:25.126Z,23.60
2022-08-27T17:55:53.477Z,23.70
2022-08-27T17:58:22.117Z,23.70
2022-08-27T18:00:51.228Z,23.70
2022-08-27T18:03:21.304Z,23.80
2022-08-27T18:05:51.207Z,23.80
2022-08-27T18:08:20.664Z,23.70
2022-08-27T18:10:50.424Z,23.80
2022-08-27T18:13:19.806Z,24.20
2022-08-27T18:15:50.241Z,24.00
2022-08-27T18:18:18.652Z,23.80
2022-08-27T18:20:47.102Z,23.80
2022-08-27T18:23:15.530Z,23.90
2022-08-27T18:25:45.664Z,24.10
2022-08-27T18:28:17.837Z,24.10
2022-08-27T18:30:48.057Z,24.20
2022-08-27T18:33:16.707Z,24.00
2022-08-27T18:35:45.251Z,24.00
2022-08-27T18:38:14.071Z,24.00
2022-08-27T18:40:45.339Z,23.90
2022-08-27T18:43:16.922Z,23.80
2022-08-27T18:45:45.939Z,23.70
2022-08-27T18:48:15.895Z,23.60
2022-08-27T18:50:46.923Z,23.90
2022-08-27T18:53:17.597Z,23.80
2022-08-27T18:55:46.038Z,23.60
2022-08-27T18:58:16.284Z,23.60
2022-08-27T19:00:46.989Z,23.70
2022-08-27T19:03:18.590Z,23.80
2022-08-27T19:05:47.252Z,23.80
2022-08-27T19:08:18.086Z,23.70
2022-08-27T19:10:49.849Z,23.70
2022-08-27T19:13:19.709Z,23.80
2022-08-27T19:15:53.597Z,23.60
2022-08-27T19:18:24.039Z,23.90
2022-08-27T19:20:52.637Z,23.90
2022-08-27T19:23:22.447Z,23.60
2022-08-27T19:25:51.754Z,23.80
2022-08-27T19:28:25.608Z,23.30
2022-08-27T19:30:55.110Z,23.10
2022-08-27T19:33:23.732Z,23.30
2022-08-27T19:35:52.183Z,23.20
2022-08-27T19:38:20.502Z,23.30
2022-08-27T19:40:48.935Z,23.60
2022-08-27T19:43:17.268Z,23.70
2022-08-27T19:45:47.500Z,23.70
2022-08-27T19:48:17.898Z,23.50
2022-08-27T19:50:46.432Z,23.60
2022-08-27T19:53:16.859Z,23.60
2022-08-27T19:55:46.087Z,23.70
2022-08-27T19:58:14.739Z,23.50
2022-08-27T20:00:43.726Z,23.50
2022-08-27T20:03:13.784Z,23.70
2022-08-27T20:05:42.201Z,23.40
2022-08-27T20:08:10.522Z,23.80
2022-08-27T20:10:41.953Z,23.80
2022-08-27T20:13:10.641Z,23.50
2022-08-27T20:15:40.541Z,23.70
2022-08-27T20:18:09.953Z,23.50
2022-08-27T20:20:40.121Z,23.70
2022-08-27T20:23:09.064Z,23.80
2022-08-27T20:25:37.944Z,23.30
2022-08-27T20:28:28.269Z,23.30
2022-08-27T20:30:57.421Z,23.40
2022-08-27T20:33:26.999Z,23.70
2022-08-27T20:35:59.340Z,23.70
2022-08-27T20:38:27.703Z,23.70
2022-08-27T20:40:56.186Z,23.70
2022-08-27T20:43:24.881Z,23.30
2022-08-27T20:45:53.361Z,23.40
2022-08-27T20:48:21.729Z,23.60
2022-08-27T20:50:50.622Z,23.60
2022-08-27T20:53:20.803Z,23.40
2022-08-27T20:55:49.123Z,23.50
2022-08-27T20:58:34.813Z,23.60
2022-08-27T21:01:03.108Z,23.60
2022-08-27T21:03:31.405Z,23.30
2022-08-27T21:05:59.813Z,23.20
2022-08-27T21:08:30.270Z,23.20
2022-08-27T21:10:59.363Z,22.90
2022-08-27T21:13:30.018Z,23.20
2022-08-27T21:15:58.487Z,23.50
2022-08-27T21:18:29.796Z,23.40
2022-08-27T21:20:58.578Z,23.60
2022-08-27T21:23:29.114Z,23.20
2022-08-27T21:26:01.250Z,23.20
2022-08-27T21:28:30.045Z,23.90
2022-08-27T21:30:58.310Z,23.10
2022-08-27T21:33:27.771Z,22.60
2022-08-27T21:35:56.226Z,22.40
2022-08-27T21:38:24.488Z,22.20
2022-08-27T21:40:54.163Z,22.10
2022-08-27T21:43:22.593Z,22.10
2022-08-27T21:45:54.930Z,21.90
2022-08-27T21:48:23.149Z,21.80
2022-08-27T21:50:53.487Z,21.90
2022-08-27T21:53:22.486Z,21.80
2022-08-27T21:55:54.848Z,21.70
2022-08-27T21:58:26.534Z,21.60
2022-08-27T22:00:55.858Z,21.50
2022-08-27T22:03:26.147Z,21.50
2022-08-27T22:05:54.550Z,21.40
2022-08-27T22:08:24.075Z,21.40
2022-08-27T22:10:55.582Z,21.30
2022-08-27T22:13:24.377Z,21.30
2022-08-27T22:15:53.080Z,21.20
2022-08-27T22:18:23.114Z,21.10
2022-08-27T22:20:52.968Z,21.00
2022-08-27T22:23:21.858Z,21.00
2022-08-27T22:25:50.233Z,20.90
2022-08-27T22:28:20.703Z,20.90
2022-08-27T22:30:49.119Z,20.80
2022-08-27T22:33:18.785Z,20.70
2022-08-27T22:35:47.130Z,20.60
2022-08-27T22:38:15.420Z,20.60
2022-08-27T22:40:43.870Z,20.50
2022-08-27T22:43:13.294Z,20.50
2022-08-27T22:45:42.993Z,20.40
2022-08-27T22:48:11.314Z,20.40
2022-08-27T22:50:39.835Z,20.40
2022-08-27T22:53:08.668Z,20.30
2022-08-27T22:55:37.084Z,20.30
2022-08-27T22:58:05.665Z,20.30
2022-08-27T23:00:35.383Z,20.20
2022-08-27T23:03:07.111Z,20.20
2022-08-27T23:05:41.707Z,20.10
2022-08-27T23:08:12.129Z,20.10
2022-08-27T23:10:40.893Z,20.10
2022-08-27T23:13:09.738Z,20.00
2022-08-27T23:15:38.642Z,20.00
2022-08-27T23:18:08.641Z,20.00
2022-08-27T23:20:37.171Z,20.00
2022-08-27T23:23:08.014Z,19.80
2022-08-27T23:25:54.278Z,19.80
2022-08-27T23:28:23.436Z,19.70
2022-08-27T23:30:51.988Z,19.70
2022-08-27T23:33:22.237Z,19.60
2022-08-27T23:35:51.803Z,19.60
2022-08-27T23:38:21.384Z,19.60
2022-08-27T23:40:52.157Z,19.60
2022-08-27T23:43:21.537Z,19.50
2022-08-27T23:45:49.975Z,19.50
2022-08-27T23:48:18.252Z,19.40
2022-08-27T23:50:47.733Z,19.40
2022-08-27T23:53:16.218Z,19.40
2022-08-27T23:55:44.870Z,19.40
2022-08-27T23:58:14.483Z,19.30
